sensor_id;sensor_type;location;lat;lon;timestamp;P1;durP1;ratioP1;P2;durP2;ratioP2
4726;SDS011;2377;51.734;8.950;2022-07-12T00:01:56;4.97;;;2.10;;
4726;SDS011;2377;51.734;8.950;2022-07-12T00:04:23;2.90;;;2.00;;
4726;SDS011;2377;51.734;8.950;2022-07-12T00:06:52;2.53;;;1.67;;
4726;SDS011;2377;51.734;8.950;2022-07-12T00:09:19;2.87;;;1.70;;
4726;SDS011;2377;51.734;8.950;2022-07-12T00:11:47;4.10;;;2.13;;
4726;SDS011;2377;51.734;8.950;2022-07-12T00:14:14;2.93;;;2.03;;
4726;SDS011;2377;51.734;8.950;2022-07-12T00:16:41;2.27;;;1.50;;
4726;SDS011;2377;51.734;8.950;2022-07-12T00:19:09;2.53;;;1.40;;
4726;SDS011;2377;51.734;8.950;2022-07-12T00:21:36;2.50;;;1.87;;
4726;SDS011;2377;51.734;8.950;2022-07-12T00:24:05;9.40;;;2.90;;
4726;SDS011;2377;51.734;8.950;2022-07-12T00:26:32;4.90;;;2.67;;
4726;SDS011;2377;51.734;8.950;2022-07-12T00:28:59;4.43;;;2.20;;
4726;SDS011;2377;51.734;8.950;2022-07-12T00:31:27;2.70;;;1.80;;
4726;SDS011;2377;51.734;8.950;2022-07-12T00:33:55;4.97;;;2.33;;
4726;SDS011;2377;51.734;8.950;2022-07-12T00:36:22;3.50;;;2.20;;
4726;SDS011;2377;51.734;8.950;2022-07-12T00:38:49;4.20;;;2.40;;
4726;SDS011;2377;51.734;8.950;2022-07-12T00:41:17;3.50;;;1.70;;
4726;SDS011;2377;51.734;8.950;2022-07-12T00:43:45;6.03;;;2.40;;
4726;SDS011;2377;51.734;8.950;2022-07-12T00:46:12;3.20;;;2.40;;
4726;SDS011;2377;51.734;8.950;2022-07-12T00:48:45;8.00;;;2.50;;
4726;SDS011;2377;51.734;8.950;2022-07-12T00:51:12;3.30;;;1.80;;
4726;SDS011;2377;51.734;8.950;2022-07-12T00:53:40;4.00;;;1.70;;
4726;SDS011;2377;51.734;8.950;2022-07-12T00:56:07;4.90;;;2.13;;
4726;SDS011;2377;51.734;8.950;2022-07-12T00:58:36;2.37;;;1.50;;
4726;SDS011;2377;51.734;8.950;2022-07-12T01:01:03;2.70;;;1.87;;
4726;SDS011;2377;51.734;8.950;2022-07-12T01:03:30;3.00;;;1.90;;
4726;SDS011;2377;51.734;8.950;2022-07-12T01:05:58;2.10;;;1.43;;
4726;SDS011;2377;51.734;8.950;2022-07-12T01:08:25;1.80;;;1.20;;
4726;SDS011;2377;51.734;8.950;2022-07-12T01:10:53;2.30;;;1.40;;
4726;SDS011;2377;51.734;8.950;2022-07-12T01:13:21;1.80;;;1.23;;
4726;SDS011;2377;51.734;8.950;2022-07-12T01:15:50;2.47;;;1.43;;
4726;SDS011;2377;51.734;8.950;2022-07-12T01:18:18;2.90;;;1.50;;
4726;SDS011;2377;51.734;8.950;2022-07-12T01:20:47;2.07;;;1.30;;
4726;SDS011;2377;51.734;8.950;2022-07-12T01:23:15;2.33;;;1.43;;
4726;SDS011;2377;51.734;8.950;2022-07-12T01:25:43;2.23;;;1.43;;
4726;SDS011;2377;51.734;8.950;2022-07-12T01:28:10;3.93;;;1.87;;
4726;SDS011;2377;51.734;8.950;2022-07-12T01:30:37;6.00;;;2.40;;
4726;SDS011;2377;51.734;8.950;2022-07-12T01:33:06;8.63;;;2.57;;
4726;SDS011;2377;51.734;8.950;2022-07-12T01:35:34;2.63;;;1.93;;
4726;SDS011;2377;51.734;8.950;2022-07-12T01:38:02;3.30;;;2.33;;
4726;SDS011;2377;51.734;8.950;2022-07-12T01:40:31;7.10;;;2.37;;
4726;SDS011;2377;51.734;8.950;2022-07-12T01:43:00;10.40;;;2.30;;
4726;SDS011;2377;51.734;8.950;2022-07-12T01:45:28;5.70;;;2.13;;
4726;SDS011;2377;51.734;8.950;2022-07-12T01:47:55;5.43;;;1.87;;
4726;SDS011;2377;51.734;8.950;2022-07-12T01:50:26;2.73;;;1.67;;
4726;SDS011;2377;51.734;8.950;2022-07-12T01:52:53;3.53;;;2.00;;
4726;SDS011;2377;51.734;8.950;2022-07-12T01:55:21;6.47;;;2.17;;
4726;SDS011;2377;51.734;8.950;2022-07-12T01:57:50;3.50;;;1.90;;
4726;SDS011;2377;51.734;8.950;2022-07-12T02:00:17;6.90;;;2.30;;
4726;SDS011;2377;51.734;8.950;2022-07-12T02:02:45;6.80;;;1.83;;
4726;SDS011;2377;51.734;8.950;2022-07-12T02:05:13;4.07;;;2.00;;
4726;SDS011;2377;51.734;8.950;2022-07-12T02:07:40;3.33;;;1.83;;
4726;SDS011;2377;51.734;8.950;2022-07-12T02:10:08;6.10;;;2.17;;
4726;SDS011;2377;51.734;8.950;2022-07-12T02:12:36;6.80;;;1.97;;
4726;SDS011;2377;51.734;8.950;2022-07-12T02:15:05;4.47;;;1.87;;
4726;SDS011;2377;51.734;8.950;2022-07-12T02:17:34;6.03;;;2.40;;
4726;SDS011;2377;51.734;8.950;2022-07-12T02:20:02;4.33;;;2.17;;
4726;SDS011;2377;51.734;8.950;2022-07-12T02:22:31;7.30;;;2.33;;
4726;SDS011;2377;51.734;8.950;2022-07-12T02:25:00;13.20;;;2.50;;
4726;SDS011;2377;51.734;8.950;2022-07-12T02:27:27;14.97;;;2.40;;
4726;SDS011;2377;51.734;8.950;2022-07-12T02:29:55;14.47;;;2.30;;
4726;SDS011;2377;51.734;8.950;2022-07-12T02:32:24;9.20;;;2.03;;
4726;SDS011;2377;51.734;8.950;2022-07-12T02:34:51;3.70;;;1.90;;
4726;SDS011;2377;51.734;8.950;2022-07-12T02:37:18;5.90;;;2.33;;
4726;SDS011;2377;51.734;8.950;2022-07-12T02:39:45;6.13;;;1.90;;
4726;SDS011;2377;51.734;8.950;2022-07-12T02:42:12;7.10;;;2.00;;
4726;SDS011;2377;51.734;8.950;2022-07-12T02:44:39;12.07;;;2.23;;
4726;SDS011;2377;51.734;8.950;2022-07-12T02:47:06;7.40;;;2.37;;
4726;SDS011;2377;51.734;8.950;2022-07-12T02:49:35;7.13;;;2.63;;
4726;SDS011;2377;51.734;8.950;2022-07-12T02:52:02;7.20;;;2.40;;
4726;SDS011;2377;51.734;8.950;2022-07-12T02:54:30;8.00;;;2.93;;
4726;SDS011;2377;51.734;8.950;2022-07-12T02:56:57;9.50;;;2.57;;
4726;SDS011;2377;51.734;8.950;2022-07-12T02:59:24;6.77;;;2.43;;
4726;SDS011;2377;51.734;8.950;2022-07-12T03:01:51;11.10;;;2.30;;
4726;SDS011;2377;51.734;8.950;2022-07-12T03:04:18;11.67;;;2.77;;
4726;SDS011;2377;51.734;8.950;2022-07-12T03:06:50;9.07;;;2.73;;
4726;SDS011;2377;51.734;8.950;2022-07-12T03:09:17;7.83;;;2.30;;
4726;SDS011;2377;51.734;8.950;2022-07-12T03:11:44;10.23;;;2.97;;
4726;SDS011;2377;51.734;8.950;2022-07-12T03:14:11;11.63;;;3.53;;
4726;SDS011;2377;51.734;8.950;2022-07-12T03:16:39;6.33;;;3.63;;
4726;SDS011;2377;51.734;8.950;2022-07-12T03:19:06;3.87;;;2.90;;
4726;SDS011;2377;51.734;8.950;2022-07-12T03:21:33;6.37;;;3.10;;
4726;SDS011;2377;51.734;8.950;2022-07-12T03:24:01;11.53;;;3.90;;
4726;SDS011;2377;51.734;8.950;2022-07-12T03:26:29;7.37;;;4.20;;
4726;SDS011;2377;51.734;8.950;2022-07-12T03:28:56;6.70;;;3.30;;
4726;SDS011;2377;51.734;8.950;2022-07-12T03:31:25;4.70;;;3.33;;
4726;SDS011;2377;51.734;8.950;2022-07-12T03:33:53;11.30;;;4.03;;
4726;SDS011;2377;51.734;8.950;2022-07-12T03:36:20;9.17;;;3.43;;
4726;SDS011;2377;51.734;8.950;2022-07-12T03:38:47;10.00;;;3.30;;
4726;SDS011;2377;51.734;8.950;2022-07-12T03:41:15;6.13;;;3.57;;
4726;SDS011;2377;51.734;8.950;2022-07-12T03:43:42;5.70;;;3.20;;
4726;SDS011;2377;51.734;8.950;2022-07-12T03:46:09;5.70;;;3.20;;
4726;SDS011;2377;51.734;8.950;2022-07-12T03:48:37;5.43;;;3.70;;
4726;SDS011;2377;51.734;8.950;2022-07-12T03:51:04;5.77;;;3.53;;
4726;SDS011;2377;51.734;8.950;2022-07-12T03:53:33;9.10;;;4.00;;
4726;SDS011;2377;51.734;8.950;2022-07-12T03:56:00;5.17;;;3.80;;
4726;SDS011;2377;51.734;8.950;2022-07-12T03:58:28;9.57;;;3.60;;
4726;SDS011;2377;51.734;8.950;2022-07-12T04:00:55;7.43;;;3.40;;
4726;SDS011;2377;51.734;8.950;2022-07-12T04:03:22;8.83;;;4.50;;
4726;SDS011;2377;51.734;8.950;2022-07-12T04:05:49;5.80;;;3.70;;
4726;SDS011;2377;51.734;8.950;2022-07-12T04:08:18;41.30;;;5.10;;
4726;SDS011;2377;51.734;8.950;2022-07-12T04:10:45;5.40;;;4.00;;
4726;SDS011;2377;51.734;8.950;2022-07-12T04:13:12;10.17;;;4.30;;
4726;SDS011;2377;51.734;8.950;2022-07-12T04:15:41;22.50;;;5.47;;
4726;SDS011;2377;51.734;8.950;2022-07-12T04:18:08;17.20;;;5.03;;
4726;SDS011;2377;51.734;8.950;2022-07-12T04:20:35;8.10;;;4.70;;
4726;SDS011;2377;51.734;8.950;2022-07-12T04:23:02;6.17;;;4.50;;
4726;SDS011;2377;51.734;8.950;2022-07-12T04:25:29;26.77;;;6.40;;
4726;SDS011;2377;51.734;8.950;2022-07-12T04:27:56;7.17;;;5.97;;
4726;SDS011;2377;51.734;8.950;2022-07-12T04:30:23;10.30;;;6.53;;
4726;SDS011;2377;51.734;8.950;2022-07-12T04:32:55;7.70;;;5.47;;
4726;SDS011;2377;51.734;8.950;2022-07-12T04:35:23;8.27;;;5.87;;
4726;SDS011;2377;51.734;8.950;2022-07-12T04:37:50;7.20;;;5.17;;
4726;SDS011;2377;51.734;8.950;2022-07-12T04:40:18;6.80;;;5.43;;
4726;SDS011;2377;51.734;8.950;2022-07-12T04:42:45;9.10;;;6.00;;
4726;SDS011;2377;51.734;8.950;2022-07-12T04:45:12;5.10;;;4.60;;
4726;SDS011;2377;51.734;8.950;2022-07-12T04:47:39;7.87;;;5.27;;
4726;SDS011;2377;51.734;8.950;2022-07-12T04:50:08;8.70;;;5.40;;
4726;SDS011;2377;51.734;8.950;2022-07-12T04:52:35;7.90;;;5.30;;
4726;SDS011;2377;51.734;8.950;2022-07-12T04:55:02;7.60;;;4.60;;
4726;SDS011;2377;51.734;8.950;2022-07-12T04:57:30;7.90;;;4.90;;
4726;SDS011;2377;51.734;8.950;2022-07-12T04:59:57;5.23;;;4.40;;
4726;SDS011;2377;51.734;8.950;2022-07-12T05:02:24;6.17;;;4.23;;
4726;SDS011;2377;51.734;8.950;2022-07-12T05:04:52;6.93;;;3.90;;
4726;SDS011;2377;51.734;8.950;2022-07-12T05:07:20;4.80;;;4.30;;
4726;SDS011;2377;51.734;8.950;2022-07-12T05:09:47;7.93;;;4.13;;
4726;SDS011;2377;51.734;8.950;2022-07-12T05:12:16;5.30;;;3.70;;
4726;SDS011;2377;51.734;8.950;2022-07-12T05:14:43;8.10;;;3.90;;
4726;SDS011;2377;51.734;8.950;2022-07-12T05:17:11;6.77;;;3.50;;
4726;SDS011;2377;51.734;8.950;2022-07-12T05:19:38;8.67;;;3.73;;
4726;SDS011;2377;51.734;8.950;2022-07-12T05:22:05;5.33;;;3.83;;
4726;SDS011;2377;51.734;8.950;2022-07-12T05:24:34;6.30;;;4.07;;
4726;SDS011;2377;51.734;8.950;2022-07-12T05:27:01;7.53;;;3.90;;
4726;SDS011;2377;51.734;8.950;2022-07-12T05:29:29;5.67;;;3.97;;
4726;SDS011;2377;51.734;8.950;2022-07-12T05:31:56;6.67;;;5.10;;
4726;SDS011;2377;51.734;8.950;2022-07-12T05:34:26;8.30;;;5.37;;
4726;SDS011;2377;51.734;8.950;2022-07-12T05:36:53;14.17;;;9.13;;
4726;SDS011;2377;51.734;8.950;2022-07-12T05:39:20;13.77;;;7.33;;
4726;SDS011;2377;51.734;8.950;2022-07-12T05:41:49;6.97;;;5.97;;
4726;SDS011;2377;51.734;8.950;2022-07-12T05:44:16;5.50;;;4.97;;
4726;SDS011;2377;51.734;8.950;2022-07-12T05:46:44;5.63;;;4.80;;
4726;SDS011;2377;51.734;8.950;2022-07-12T05:49:11;7.03;;;5.53;;
4726;SDS011;2377;51.734;8.950;2022-07-12T05:51:39;6.20;;;4.93;;
4726;SDS011;2377;51.734;8.950;2022-07-12T05:54:29;6.60;;;5.40;;
4726;SDS011;2377;51.734;8.950;2022-07-12T05:56:57;6.00;;;5.40;;
4726;SDS011;2377;51.734;8.950;2022-07-12T05:59:24;5.53;;;4.97;;
4726;SDS011;2377;51.734;8.950;2022-07-12T06:01:54;5.50;;;4.90;;
4726;SDS011;2377;51.734;8.950;2022-07-12T06:04:21;7.47;;;6.03;;
4726;SDS011;2377;51.734;8.950;2022-07-12T06:06:49;5.90;;;5.30;;
4726;SDS011;2377;51.734;8.950;2022-07-12T06:09:16;6.43;;;5.30;;
4726;SDS011;2377;51.734;8.950;2022-07-12T06:11:43;6.47;;;5.80;;
4726;SDS011;2377;51.734;8.950;2022-07-12T06:14:11;7.67;;;6.87;;
4726;SDS011;2377;51.734;8.950;2022-07-12T06:16:38;11.50;;;6.57;;
4726;SDS011;2377;51.734;8.950;2022-07-12T06:19:06;7.13;;;6.00;;
4726;SDS011;2377;51.734;8.950;2022-07-12T06:21:33;7.40;;;6.47;;
4726;SDS011;2377;51.734;8.950;2022-07-12T06:24:00;7.60;;;6.30;;
4726;SDS011;2377;51.734;8.950;2022-07-12T06:26:28;6.23;;;5.60;;
4726;SDS011;2377;51.734;8.950;2022-07-12T06:28:55;7.47;;;6.27;;
4726;SDS011;2377;51.734;8.950;2022-07-12T06:31:24;5.63;;;4.60;;
4726;SDS011;2377;51.734;8.950;2022-07-12T06:33:51;5.30;;;4.50;;
4726;SDS011;2377;51.734;8.950;2022-07-12T06:36:18;5.90;;;4.97;;
4726;SDS011;2377;51.734;8.950;2022-07-12T06:38:45;6.17;;;4.37;;
4726;SDS011;2377;51.734;8.950;2022-07-12T06:41:12;4.33;;;3.93;;
4726;SDS011;2377;51.734;8.950;2022-07-12T06:43:39;6.10;;;4.57;;
4726;SDS011;2377;51.734;8.950;2022-07-12T06:46:06;2.60;;;2.10;;
4726;SDS011;2377;51.734;8.950;2022-07-12T06:48:35;4.43;;;2.50;;
4726;SDS011;2377;51.734;8.950;2022-07-12T06:51:02;3.50;;;2.60;;
4726;SDS011;2377;51.734;8.950;2022-07-12T06:53:29;2.90;;;2.00;;
4726;SDS011;2377;51.734;8.950;2022-07-12T06:55:56;3.70;;;2.03;;
4726;SDS011;2377;51.734;8.950;2022-07-12T06:58:25;2.17;;;1.60;;
4726;SDS011;2377;51.734;8.950;2022-07-12T07:00:53;3.37;;;1.90;;
4726;SDS011;2377;51.734;8.950;2022-07-12T07:03:20;2.93;;;2.10;;
4726;SDS011;2377;51.734;8.950;2022-07-12T07:05:48;2.77;;;1.70;;
4726;SDS011;2377;51.734;8.950;2022-07-12T07:08:16;2.17;;;1.70;;
4726;SDS011;2377;51.734;8.950;2022-07-12T07:10:43;2.40;;;1.70;;
4726;SDS011;2377;51.734;8.950;2022-07-12T07:13:10;2.60;;;1.90;;
4726;SDS011;2377;51.734;8.950;2022-07-12T07:15:38;2.60;;;1.93;;
4726;SDS011;2377;51.734;8.950;2022-07-12T07:18:06;3.03;;;1.90;;
4726;SDS011;2377;51.734;8.950;2022-07-12T07:20:33;2.83;;;1.80;;
4726;SDS011;2377;51.734;8.950;2022-07-12T07:23:02;3.37;;;2.20;;
4726;SDS011;2377;51.734;8.950;2022-07-12T07:25:32;3.03;;;2.10;;
4726;SDS011;2377;51.734;8.950;2022-07-12T07:27:59;3.10;;;1.90;;
4726;SDS011;2377;51.734;8.950;2022-07-12T07:30:26;3.07;;;2.00;;
4726;SDS011;2377;51.734;8.950;2022-07-12T07:33:10;2.73;;;1.97;;
4726;SDS011;2377;51.734;8.950;2022-07-12T07:35:38;2.77;;;1.90;;
4726;SDS011;2377;51.734;8.950;2022-07-12T07:38:06;2.60;;;1.80;;
4726;SDS011;2377;51.734;8.950;2022-07-12T07:40:33;3.80;;;1.53;;
4726;SDS011;2377;51.734;8.950;2022-07-12T07:43:00;3.17;;;2.03;;
4726;SDS011;2377;51.734;8.950;2022-07-12T07:45:27;2.90;;;2.00;;
4726;SDS011;2377;51.734;8.950;2022-07-12T07:47:54;2.70;;;2.00;;
4726;SDS011;2377;51.734;8.950;2022-07-12T07:50:21;3.07;;;2.03;;
4726;SDS011;2377;51.734;8.950;2022-07-12T07:52:49;3.07;;;2.40;;
4726;SDS011;2377;51.734;8.950;2022-07-12T07:55:18;2.43;;;1.90;;
4726;SDS011;2377;51.734;8.950;2022-07-12T07:57:45;3.40;;;2.20;;
4726;SDS011;2377;51.734;8.950;2022-07-12T08:00:14;2.63;;;1.97;;
4726;SDS011;2377;51.734;8.950;2022-07-12T08:02:41;2.60;;;1.50;;
4726;SDS011;2377;51.734;8.950;2022-07-12T08:05:10;3.40;;;2.00;;
4726;SDS011;2377;51.734;8.950;2022-07-12T08:07:37;2.80;;;2.00;;
4726;SDS011;2377;51.734;8.950;2022-07-12T08:10:04;2.77;;;2.13;;
4726;SDS011;2377;51.734;8.950;2022-07-12T08:12:34;2.93;;;2.13;;
4726;SDS011;2377;51.734;8.950;2022-07-12T08:15:01;3.93;;;2.30;;
4726;SDS011;2377;51.734;8.950;2022-07-12T08:17:31;3.83;;;1.83;;
4726;SDS011;2377;51.734;8.950;2022-07-12T08:19:59;3.27;;;1.73;;
4726;SDS011;2377;51.734;8.950;2022-07-12T08:22:26;3.30;;;2.07;;
4726;SDS011;2377;51.734;8.950;2022-07-12T08:24:53;3.40;;;1.80;;
4726;SDS011;2377;51.734;8.950;2022-07-12T08:27:20;3.17;;;1.40;;
4726;SDS011;2377;51.734;8.950;2022-07-12T08:29:49;2.20;;;1.50;;
4726;SDS011;2377;51.734;8.950;2022-07-12T08:32:16;2.43;;;1.60;;
4726;SDS011;2377;51.734;8.950;2022-07-12T08:34:43;2.07;;;1.37;;
4726;SDS011;2377;51.734;8.950;2022-07-12T08:37:10;3.10;;;1.70;;
4726;SDS011;2377;51.734;8.950;2022-07-12T08:39:38;2.10;;;1.40;;
4726;SDS011;2377;51.734;8.950;2022-07-12T08:42:05;2.20;;;1.47;;
4726;SDS011;2377;51.734;8.950;2022-07-12T08:44:34;2.03;;;1.40;;
4726;SDS011;2377;51.734;8.950;2022-07-12T08:47:03;2.53;;;1.40;;
4726;SDS011;2377;51.734;8.950;2022-07-12T08:49:33;2.60;;;1.70;;
4726;SDS011;2377;51.734;8.950;2022-07-12T08:52:02;3.80;;;1.90;;
4726;SDS011;2377;51.734;8.950;2022-07-12T08:54:54;6.30;;;2.03;;
4726;SDS011;2377;51.734;8.950;2022-07-12T08:57:30;2.30;;;1.33;;
4726;SDS011;2377;51.734;8.950;2022-07-12T08:59:58;2.70;;;1.57;;
4726;SDS011;2377;51.734;8.950;2022-07-12T09:02:28;5.37;;;1.60;;
4726;SDS011;2377;51.734;8.950;2022-07-12T09:05:11;2.60;;;1.50;;
4726;SDS011;2377;51.734;8.950;2022-07-12T09:07:39;2.60;;;1.53;;
4726;SDS011;2377;51.734;8.950;2022-07-12T09:10:06;4.03;;;2.10;;
4726;SDS011;2377;51.734;8.950;2022-07-12T09:12:36;3.03;;;1.93;;
4726;SDS011;2377;51.734;8.950;2022-07-12T09:15:10;2.30;;;1.40;;
4726;SDS011;2377;51.734;8.950;2022-07-12T09:17:58;2.03;;;1.37;;
4726;SDS011;2377;51.734;8.950;2022-07-12T09:20:27;2.37;;;1.70;;
4726;SDS011;2377;51.734;8.950;2022-07-12T09:22:57;2.10;;;1.50;;
4726;SDS011;2377;51.734;8.950;2022-07-12T09:25:26;3.53;;;1.60;;
4726;SDS011;2377;51.734;8.950;2022-07-12T09:27:54;2.20;;;1.70;;
4726;SDS011;2377;51.734;8.950;2022-07-12T09:30:24;2.87;;;1.70;;
4726;SDS011;2377;51.734;8.950;2022-07-12T09:32:54;2.40;;;1.80;;
4726;SDS011;2377;51.734;8.950;2022-07-12T09:35:57;2.53;;;1.70;;
4726;SDS011;2377;51.734;8.950;2022-07-12T09:38:36;2.50;;;1.60;;
4726;SDS011;2377;51.734;8.950;2022-07-12T09:41:05;2.87;;;1.70;;
4726;SDS011;2377;51.734;8.950;2022-07-12T09:43:33;3.23;;;1.67;;
4726;SDS011;2377;51.734;8.950;2022-07-12T09:46:01;2.63;;;1.73;;
4726;SDS011;2377;51.734;8.950;2022-07-12T09:48:30;3.40;;;1.77;;
4726;SDS011;2377;51.734;8.950;2022-07-12T09:50:59;2.40;;;1.70;;
4726;SDS011;2377;51.734;8.950;2022-07-12T09:53:30;1.90;;;1.30;;
4726;SDS011;2377;51.734;8.950;2022-07-12T09:56:04;2.07;;;1.27;;
4726;SDS011;2377;51.734;8.950;2022-07-12T09:58:39;7.60;;;1.40;;
4726;SDS011;2377;51.734;8.950;2022-07-12T10:01:19;2.77;;;1.40;;
4726;SDS011;2377;51.734;8.950;2022-07-12T10:03:50;1.90;;;1.17;;
4726;SDS011;2377;51.734;8.950;2022-07-12T10:06:20;2.73;;;1.60;;
4726;SDS011;2377;51.734;8.950;2022-07-12T10:08:52;2.10;;;1.50;;
4726;SDS011;2377;51.734;8.950;2022-07-12T10:11:21;5.77;;;1.67;;
4726;SDS011;2377;51.734;8.950;2022-07-12T10:13:49;1.90;;;1.30;;
4726;SDS011;2377;51.734;8.950;2022-07-12T10:16:24;2.10;;;1.50;;
4726;SDS011;2377;51.734;8.950;2022-07-12T10:21:52;2.90;;;1.50;;
4726;SDS011;2377;51.734;8.950;2022-07-12T10:32:49;1.93;;;1.30;;
4726;SDS011;2377;51.734;8.950;2022-07-12T10:35:23;2.50;;;1.50;;
4726;SDS011;2377;51.734;8.950;2022-07-12T10:40:44;2.10;;;1.30;;
4726;SDS011;2377;51.734;8.950;2022-07-12T10:43:17;2.00;;;1.20;;
4726;SDS011;2377;51.734;8.950;2022-07-12T10:45:48;2.50;;;1.60;;
4726;SDS011;2377;51.734;8.950;2022-07-12T10:48:20;16.20;;;1.60;;
4726;SDS011;2377;51.734;8.950;2022-07-12T10:50:54;2.10;;;1.40;;
4726;SDS011;2377;51.734;8.950;2022-07-12T10:53:31;2.30;;;1.57;;
4726;SDS011;2377;51.734;8.950;2022-07-12T10:56:12;2.40;;;1.77;;
4726;SDS011;2377;51.734;8.950;2022-07-12T10:58:43;3.07;;;1.70;;
4726;SDS011;2377;51.734;8.950;2022-07-12T11:01:14;2.03;;;1.40;;
4726;SDS011;2377;51.734;8.950;2022-07-12T11:03:44;2.13;;;1.47;;
4726;SDS011;2377;51.734;8.950;2022-07-12T11:06:16;2.10;;;1.30;;
4726;SDS011;2377;51.734;8.950;2022-07-12T11:08:52;2.53;;;1.50;;
4726;SDS011;2377;51.734;8.950;2022-07-12T11:11:22;3.13;;;1.70;;
4726;SDS011;2377;51.734;8.950;2022-07-12T11:13:52;2.80;;;1.60;;
4726;SDS011;2377;51.734;8.950;2022-07-12T11:16:21;2.70;;;1.70;;
4726;SDS011;2377;51.734;8.950;2022-07-12T11:18:49;2.50;;;1.57;;
4726;SDS011;2377;51.734;8.950;2022-07-12T11:21:21;2.20;;;1.47;;
4726;SDS011;2377;51.734;8.950;2022-07-12T11:23:53;2.87;;;1.80;;
4726;SDS011;2377;51.734;8.950;2022-07-12T11:26:20;3.27;;;1.40;;
4726;SDS011;2377;51.734;8.950;2022-07-12T11:28:48;2.40;;;1.47;;
4726;SDS011;2377;51.734;8.950;2022-07-12T11:31:15;2.87;;;1.77;;
4726;SDS011;2377;51.734;8.950;2022-07-12T11:33:46;2.30;;;1.60;;
4726;SDS011;2377;51.734;8.950;2022-07-12T11:36:16;3.30;;;1.40;;
4726;SDS011;2377;51.734;8.950;2022-07-12T11:38:45;4.47;;;1.73;;
4726;SDS011;2377;51.734;8.950;2022-07-12T11:41:13;2.20;;;1.50;;
4726;SDS011;2377;51.734;8.950;2022-07-12T11:43:41;2.40;;;1.53;;
4726;SDS011;2377;51.734;8.950;2022-07-12T11:46:10;4.90;;;1.53;;
4726;SDS011;2377;51.734;8.950;2022-07-12T11:48:40;3.40;;;1.70;;
4726;SDS011;2377;51.734;8.950;2022-07-12T11:51:09;2.50;;;1.63;;
4726;SDS011;2377;51.734;8.950;2022-07-12T11:53:38;3.40;;;1.83;;
4726;SDS011;2377;51.734;8.950;2022-07-12T11:56:08;2.70;;;1.60;;
4726;SDS011;2377;51.734;8.950;2022-07-12T11:58:37;2.30;;;1.57;;
4726;SDS011;2377;51.734;8.950;2022-07-12T12:01:04;3.40;;;1.60;;
4726;SDS011;2377;51.734;8.950;2022-07-12T12:03:41;2.50;;;1.90;;
4726;SDS011;2377;51.734;8.950;2022-07-12T12:06:10;3.70;;;1.60;;
4726;SDS011;2377;51.734;8.950;2022-07-12T12:08:37;5.30;;;1.80;;
4726;SDS011;2377;51.734;8.950;2022-07-12T12:11:04;4.43;;;1.40;;
4726;SDS011;2377;51.734;8.950;2022-07-12T12:13:33;2.67;;;1.60;;
4726;SDS011;2377;51.734;8.950;2022-07-12T12:16:00;2.40;;;1.60;;
4726;SDS011;2377;51.734;8.950;2022-07-12T12:18:31;2.00;;;1.40;;
4726;SDS011;2377;51.734;8.950;2022-07-12T12:21:00;1.90;;;1.30;;
4726;SDS011;2377;51.734;8.950;2022-07-12T12:23:29;3.53;;;1.57;;
4726;SDS011;2377;51.734;8.950;2022-07-12T12:26:10;4.00;;;1.97;;
4726;SDS011;2377;51.734;8.950;2022-07-12T12:28:42;2.40;;;1.80;;
4726;SDS011;2377;51.734;8.950;2022-07-12T12:31:17;2.70;;;1.50;;
4726;SDS011;2377;51.734;8.950;2022-07-12T12:33:46;2.20;;;1.40;;
4726;SDS011;2377;51.734;8.950;2022-07-12T12:36:17;2.63;;;1.63;;
4726;SDS011;2377;51.734;8.950;2022-07-12T12:38:48;2.43;;;1.50;;
4726;SDS011;2377;51.734;8.950;2022-07-12T12:41:17;3.50;;;1.67;;
4726;SDS011;2377;51.734;8.950;2022-07-12T12:43:55;2.17;;;1.53;;
4726;SDS011;2377;51.734;8.950;2022-07-12T12:52:13;2.97;;;1.50;;
4726;SDS011;2377;51.734;8.950;2022-07-12T12:54:41;3.60;;;1.37;;
4726;SDS011;2377;51.734;8.950;2022-07-12T12:57:09;1.97;;;1.30;;
4726;SDS011;2377;51.734;8.950;2022-07-12T12:59:39;3.10;;;1.73;;
4726;SDS011;2377;51.734;8.950;2022-07-12T13:02:06;3.53;;;1.50;;
4726;SDS011;2377;51.734;8.950;2022-07-12T13:04:34;3.47;;;1.40;;
4726;SDS011;2377;51.734;8.950;2022-07-12T13:07:04;4.40;;;1.80;;
4726;SDS011;2377;51.734;8.950;2022-07-12T13:09:32;4.53;;;1.77;;
4726;SDS011;2377;51.734;8.950;2022-07-12T13:11:59;2.50;;;1.53;;
4726;SDS011;2377;51.734;8.950;2022-07-12T13:14:27;3.53;;;1.70;;
4726;SDS011;2377;51.734;8.950;2022-07-12T13:16:55;2.30;;;1.50;;
4726;SDS011;2377;51.734;8.950;2022-07-12T13:19:22;2.77;;;1.40;;
4726;SDS011;2377;51.734;8.950;2022-07-12T13:21:50;5.40;;;1.77;;
4726;SDS011;2377;51.734;8.950;2022-07-12T13:24:17;3.37;;;1.87;;
4726;SDS011;2377;51.734;8.950;2022-07-12T13:26:44;2.00;;;1.40;;
4726;SDS011;2377;51.734;8.950;2022-07-12T13:29:11;3.47;;;1.73;;
4726;SDS011;2377;51.734;8.950;2022-07-12T13:31:39;2.60;;;1.70;;
4726;SDS011;2377;51.734;8.950;2022-07-12T13:34:08;2.30;;;1.70;;
4726;SDS011;2377;51.734;8.950;2022-07-12T13:36:35;2.30;;;1.50;;
4726;SDS011;2377;51.734;8.950;2022-07-12T13:39:02;4.20;;;1.83;;
4726;SDS011;2377;51.734;8.950;2022-07-12T13:41:43;2.40;;;1.60;;
4726;SDS011;2377;51.734;8.950;2022-07-12T13:44:11;3.77;;;1.93;;
4726;SDS011;2377;51.734;8.950;2022-07-12T13:46:38;2.40;;;1.70;;
4726;SDS011;2377;51.734;8.950;2022-07-12T13:49:05;3.50;;;1.67;;
4726;SDS011;2377;51.734;8.950;2022-07-12T13:51:34;2.80;;;1.83;;
4726;SDS011;2377;51.734;8.950;2022-07-12T13:54:01;2.57;;;1.90;;
4726;SDS011;2377;51.734;8.950;2022-07-12T13:56:28;2.93;;;1.60;;
4726;SDS011;2377;51.734;8.950;2022-07-12T13:58:55;2.87;;;1.80;;
4726;SDS011;2377;51.734;8.950;2022-07-12T14:01:23;4.20;;;1.80;;
4726;SDS011;2377;51.734;8.950;2022-07-12T14:03:50;5.10;;;1.87;;
4726;SDS011;2377;51.734;8.950;2022-07-12T14:06:18;3.00;;;1.67;;
4726;SDS011;2377;51.734;8.950;2022-07-12T14:08:45;2.20;;;1.50;;
4726;SDS011;2377;51.734;8.950;2022-07-12T14:11:13;3.13;;;2.10;;
4726;SDS011;2377;51.734;8.950;2022-07-12T14:13:42;3.03;;;1.80;;
4726;SDS011;2377;51.734;8.950;2022-07-12T14:16:09;4.70;;;1.57;;
4726;SDS011;2377;51.734;8.950;2022-07-12T14:18:37;3.10;;;1.90;;
4726;SDS011;2377;51.734;8.950;2022-07-12T14:21:05;6.37;;;1.70;;
4726;SDS011;2377;51.734;8.950;2022-07-12T14:23:34;2.40;;;1.80;;
4726;SDS011;2377;51.734;8.950;2022-07-12T14:26:02;2.73;;;1.93;;
4726;SDS011;2377;51.734;8.950;2022-07-12T14:28:30;6.70;;;2.10;;
4726;SDS011;2377;51.734;8.950;2022-07-12T14:30:57;2.50;;;1.80;;
4726;SDS011;2377;51.734;8.950;2022-07-12T14:33:25;3.33;;;1.80;;
4726;SDS011;2377;51.734;8.950;2022-07-12T14:35:52;2.47;;;1.70;;
4726;SDS011;2377;51.734;8.950;2022-07-12T14:38:19;4.63;;;1.97;;
4726;SDS011;2377;51.734;8.950;2022-07-12T14:40:47;3.23;;;1.80;;
4726;SDS011;2377;51.734;8.950;2022-07-12T14:43:15;3.00;;;1.60;;
4726;SDS011;2377;51.734;8.950;2022-07-12T14:45:45;2.87;;;1.80;;
4726;SDS011;2377;51.734;8.950;2022-07-12T14:48:12;2.30;;;1.57;;
4726;SDS011;2377;51.734;8.950;2022-07-12T14:50:39;2.90;;;1.70;;
4726;SDS011;2377;51.734;8.950;2022-07-12T14:53:06;4.10;;;1.80;;
4726;SDS011;2377;51.734;8.950;2022-07-12T14:55:33;2.97;;;1.70;;
4726;SDS011;2377;51.734;8.950;2022-07-12T14:58:02;3.13;;;2.00;;
4726;SDS011;2377;51.734;8.950;2022-07-12T15:00:29;2.60;;;1.50;;
4726;SDS011;2377;51.734;8.950;2022-07-12T15:02:56;2.27;;;1.60;;
4726;SDS011;2377;51.734;8.950;2022-07-12T15:05:24;2.87;;;1.80;;
4726;SDS011;2377;51.734;8.950;2022-07-12T15:07:52;4.00;;;1.50;;
4726;SDS011;2377;51.734;8.950;2022-07-12T15:10:19;2.77;;;1.40;;
4726;SDS011;2377;51.734;8.950;2022-07-12T15:12:46;2.63;;;1.53;;
4726;SDS011;2377;51.734;8.950;2022-07-12T15:15:17;2.23;;;1.60;;
4726;SDS011;2377;51.734;8.950;2022-07-12T15:17:44;2.87;;;1.30;;
4726;SDS011;2377;51.734;8.950;2022-07-12T15:20:11;2.57;;;1.43;;
4726;SDS011;2377;51.734;8.950;2022-07-12T15:22:38;3.00;;;1.40;;
4726;SDS011;2377;51.734;8.950;2022-07-12T15:25:06;2.77;;;1.40;;
4726;SDS011;2377;51.734;8.950;2022-07-12T15:27:34;2.47;;;1.60;;
4726;SDS011;2377;51.734;8.950;2022-07-12T15:30:01;2.60;;;1.40;;
4726;SDS011;2377;51.734;8.950;2022-07-12T15:32:31;2.00;;;1.27;;
4726;SDS011;2377;51.734;8.950;2022-07-12T15:34:58;2.30;;;1.50;;
4726;SDS011;2377;51.734;8.950;2022-07-12T15:37:25;2.30;;;1.40;;
4726;SDS011;2377;51.734;8.950;2022-07-12T15:39:52;2.40;;;1.50;;
4726;SDS011;2377;51.734;8.950;2022-07-12T15:42:19;2.00;;;1.20;;
4726;SDS011;2377;51.734;8.950;2022-07-12T15:44:46;3.47;;;1.40;;